Terminal Aerodrome Forecast
Issued by NWS

Home | Current Version | Previous Version | Text Only | Print | Product List | Glossary On
Versions: 1 2 3 4 5 6 7 8 9 10 11 12 13 14 15 16 17 18 19 20 21 22 23 24 25 26 27 28 29 30 31 32 33 34 35 36 37 38 39 40
609
FTUS45 KBOU 262320
TAFAPA
TAF
KAPA 262320Z 2700/2724 02010KT P6SM SKC
     FM270200 11006KT P6SM SKC
     FM270600 20008KT P6SM SKC
     FM271400 24010KT P6SM SKC
     FM272100 35005KT P6SM SKC=

USA.gov is the U.S. government's official web portal to all federal, state and local government web resources and services.